Flight Track Log - Related Links

Times and Time Zones

All times are in EDT time to prevent confusion due to time zone crossing. See the JBU590 flight status page for this flight to view local times or setup timezone preferences in your user account.

Time Position Orientation Groundspeed Altitude Reporting Facility
EDT Latitude Longitude Course Direction KTS MPH feet Rate Location/Type
Thu 02:58:25 PM 38.7692 -77.0322 83° East 172 198 2,900  Level Washington Center
Thu 02:59:26 PM 38.7175 -76.9911 148° Southeast 192 221 5,600 2,521 Climbing Washington Center
Thu 03:00:00 PM 39.0293 -76.5198 62° Northeast  Level FlightAware Approximate
Thu 03:00:24 PM 38.7497 -76.9147 62° Northeast 172 198 7,900  Level Washington Center
Thu 03:01:00 PM 39.0826 -76.3919 62° Northeast  Level FlightAware Approximate
Thu 03:01:25 PM 38.8294 -76.8600 28° Northeast 175 201 11,400  Level Washington Center
Thu 03:02:00 PM 39.1321 -76.2615 63° Northeast  Level FlightAware Approximate
Thu 03:02:26 PM 38.8847 -76.7650 53° Northeast 238 274 12,500  Level Washington Center
Thu 03:03:00 PM 39.1578 -76.1224 83° East  Level FlightAware Approximate
Thu 03:03:24 PM 38.9442 -76.6458 57° Northeast 329 379 14,200  Level Washington Center
Thu 03:04:24 PM 39.0078 -76.5186 57° Northeast 369 425 16,400 2,083 Climbing Washington Center
Thu 03:05:25 PM 39.0711 -76.3883 58° Northeast 398 458 18,400 1,800 Climbing Washington Center
Thu 03:06:24 PM 39.1367 -76.2525 58° Northeast 427 491 20,000 1,664 Climbing Washington Center
Thu 03:07:24 PM 39.1708 -76.0922 75° East 441 507 21,700 1,636 Climbing Washington Center
Thu 03:08:25 PM 39.1900 -75.9211 82° East 461 531 23,300 1,525 Climbing Washington Center
Thu 03:09:26 PM 39.2675 -75.7792 55° Northeast 461 531 24,800 1,438 Climbing Washington Center
Thu 03:10:26 PM 39.3678 -75.6533 44° Northeast 473 544 26,200 1,219 Climbing Washington Center
Thu 03:12:38 PM 39.6078 -75.3464 45° Northeast 503 579 28,700 1,181 Climbing New York Center
Thu 03:13:39 PM 39.7092 -75.2072 47° Northeast 514 592 30,000 1,140 Climbing New York Center
Thu 03:14:39 PM 39.8061 -75.0647 48° Northeast 526 605 31,000 496 Climbing New York Center
Thu 03:15:40 PM 39.9094 -74.9167 48° Northeast 537 618 31,000  Level New York Center
Thu 03:16:41 PM 39.9972 -74.7839 49° Northeast 537 618 31,000  Level New York Center
Thu 03:17:41 PM 40.0961 -74.6375 49° Northeast 543 625 31,000  Level New York Center
Thu 03:18:39 PM 40.1947 -74.4828 50° Northeast 543 625 31,000  Level New York Center
Thu 03:19:39 PM 40.2933 -74.3303 50° Northeast 548 631 31,000  Level New York Center
Thu 03:20:38 PM 40.3936 -74.1775 49° Northeast 548 631 31,000  Level New York Center
Thu 03:21:40 PM 40.4875 -74.0264 51° Northeast 542 624 31,000  Level New York Center
Thu 03:22:38 PM 40.5856 -73.8700 50° Northeast 542 624 31,000 -535 Level New York Center
Thu 03:24:17 PM 40.7439 -73.6250 49° Northeast 548 631 29,600 -1,463 Descending Boston Center
Thu 03:25:18 PM 40.8381 -73.4753 50° Northeast 532 612 27,100 -1,268 Descending Boston Center
Thu 03:26:20 PM 40.9392 -73.3206 49° Northeast 503 579 27,000 -48 Descending Boston Center
Thu 03:27:22 PM 41.0336 -73.1828 48° Northeast 503 579 27,000 -871 Level Boston Center
Thu 03:28:24 PM 41.1269 -73.0436 48° Northeast 503 579 25,200 -1,935 Descending Boston Center
Thu 03:29:26 PM 41.2144 -72.9078 49° Northeast 486 559 23,000 -1,065 Descending Boston Center
Thu 03:30:28 PM 41.2844 -72.7386 61° Northeast 470 541 23,000  Level Boston Center
Thu 03:31:30 PM 41.3389 -72.5800 65° Northeast 470 541 23,000  Level Boston Center
Thu 03:32:32 PM 41.3931 -72.4217 65° Northeast 470 541 23,000  Level Boston Center
Thu 03:33:34 PM 41.4464 -72.2639 66° East 469 540 23,000  Level Boston Center
Thu 03:34:35 PM 41.5003 -72.1072 65° Northeast 468 539 23,000 -683 Level Boston Center
Thu 03:35:37 PM 41.5564 -71.9378 66° East 464 534 21,600 -1,694 Descending Boston Center
Thu 03:36:39 PM 41.6072 -71.7842 66° East 457 526 19,500 -2,177 Descending Boston Center
Thu 03:37:41 PM 41.6611 -71.6192 66° East 424 488 17,100 -2,129 Descending Boston Center
Thu 03:38:43 PM 41.7106 -71.4714 66° East 413 475 15,100 -1,887 Descending Boston Center
Thu 03:39:45 PM 41.7636 -71.3442 61° Northeast 396 456 13,200 -1,839 Descending Boston Center
Thu 03:40:47 PM 41.8303 -71.2197 54° Northeast 383 441 11,300 -1,073 Descending Boston Center
Thu 03:41:48 PM 41.8869 -71.1114 55° Northeast 359 413 11,000 -293 Descending Boston Center
Thu 03:42:50 PM 41.9478 -70.9986 54° Northeast 351 404 10,700 -774 Descending Boston Center
Thu 03:43:52 PM 42.0131 -70.9164 43° Northeast 325 374 9,400 -1,597 Descending Boston Center
Thu 03:44:54 PM 42.0711 -70.8372 45° Northeast 308 354 7,400 -2,032 Descending Boston Center
Thu 03:45:56 PM 42.1400 -70.7917 26° Northeast 301 346 5,200 -2,081 Descending Boston Center
Thu 03:46:58 PM 42.2058 -70.8289 337° Northwest 264 304 3,100 -1,306 Descending Boston Center
Thu 03:48:00 PM 42.2592 -70.8889 320° Northwest 213 245 2,500 -726 Descending Boston Center
Thu 03:49:02 PM 42.2950 -70.9361 316° Northwest 191 220 1,600 -823 Descending Boston Center
Thu 03:50:04 PM 42.3228 -70.9694 318° Northwest 146 168 800 -677 Descending Boston Center
Thu 03:51:06 PM 42.3478 -71.0003 318° Northwest 128 147 200 -581 Descending Boston Center

Login

Don't have an account? Register now (free) for customized features, flight alerts, and more!